createdAt,value
2018-05-06T00:00:43.820Z,12.49
2018-05-06T00:01:43.806Z,12.53
2018-05-06T00:02:43.728Z,12.47
2018-05-06T00:03:43.679Z,12.43
2018-05-06T00:04:43.685Z,12.45
2018-05-06T00:05:43.584Z,12.42
2018-05-06T00:06:43.539Z,12.47
2018-05-06T00:07:43.493Z,12.53
2018-05-06T00:08:43.441Z,12.46
2018-05-06T00:09:43.433Z,12.36
2018-05-06T00:10:43.346Z,12.39
2018-05-06T00:11:43.335Z,12.37
2018-05-06T00:12:43.254Z,12.36
2018-05-06T00:13:43.207Z,12.27
2018-05-06T00:14:43.159Z,12.27
2018-05-06T00:15:43.142Z,12.28
2018-05-06T00:16:43.067Z,12.28
2018-05-06T00:17:43.047Z,12.24
2018-05-06T00:18:42.965Z,12.25
2018-05-06T00:19:42.922Z,12.32
2018-05-06T00:20:42.878Z,12.20
2018-05-06T00:21:42.825Z,12.24
2018-05-06T00:22:42.884Z,12.25
2018-05-06T00:23:42.742Z,12.20
2018-05-06T00:24:42.686Z,12.17
2018-05-06T00:25:42.640Z,12.20
2018-05-06T00:26:42.595Z,12.20
2018-05-06T00:27:42.578Z,12.12
2018-05-06T00:28:42.494Z,12.10
2018-05-06T00:29:42.449Z,12.15
2018-05-06T00:30:42.431Z,12.15
2018-05-06T00:31:42.354Z,12.09
2018-05-06T00:32:42.307Z,12.02
2018-05-06T00:33:42.322Z,12.07
2018-05-06T00:34:42.211Z,11.95
2018-05-06T00:35:42.166Z,11.94
2018-05-06T00:36:42.120Z,11.86
2018-05-06T00:37:42.067Z,11.69
2018-05-06T00:38:42.057Z,11.72
2018-05-06T00:39:42.015Z,11.70
2018-05-06T00:40:41.927Z,11.66
2018-05-06T00:41:41.880Z,11.55
2018-05-06T00:42:41.831Z,11.57
2018-05-06T00:43:41.783Z,11.60
2018-05-06T00:44:41.772Z,11.54
2018-05-06T00:45:41.720Z,11.55
2018-05-06T00:46:41.647Z,11.55
2018-05-06T00:47:41.592Z,11.51
2018-05-06T00:48:41.544Z,11.54
2018-05-06T00:49:41.497Z,11.52
2018-05-06T00:50:41.486Z,11.52
2018-05-06T00:51:41.432Z,11.62
2018-05-06T00:52:41.355Z,11.54
2018-05-06T00:53:41.346Z,11.62
2018-05-06T00:54:41.264Z,11.48
2018-05-06T00:55:41.244Z,11.50
2018-05-06T00:56:41.164Z,11.47
2018-05-06T00:57:41.117Z,11.47
2018-05-06T00:58:41.065Z,11.45
2018-05-06T00:59:41.025Z,11.45
2018-05-06T01:00:41.008Z,11.36
2018-05-06T01:01:40.924Z,11.44
2018-05-06T01:02:40.883Z,11.41
2018-05-06T01:03:40.866Z,11.32
2018-05-06T01:04:40.785Z,11.26
2018-05-06T01:05:40.734Z,11.33
2018-05-06T01:06:40.722Z,11.32
2018-05-06T01:07:40.645Z,11.35
2018-05-06T01:08:40.597Z,11.26
2018-05-06T01:09:40.896Z,11.18
2018-05-06T01:10:40.530Z,11.22
2018-05-06T01:11:40.450Z,11.14
2018-05-06T01:12:40.399Z,11.11
2018-05-06T01:13:40.357Z,11.04
2018-05-06T01:14:40.310Z,11.00
2018-05-06T01:15:40.296Z,11.05
2018-05-06T01:16:40.207Z,10.97
2018-05-06T01:17:40.192Z,10.96
2018-05-06T01:18:40.111Z,10.81
2018-05-06T01:19:40.071Z,10.68
2018-05-06T01:20:40.020Z,10.61
2018-05-06T01:21:39.998Z,10.64
2018-05-06T01:22:39.959Z,10.63
2018-05-06T01:23:39.876Z,10.81
2018-05-06T01:24:39.823Z,10.81
2018-05-06T01:25:39.776Z,10.75
2018-05-06T01:26:39.759Z,10.81
2018-05-06T01:27:39.715Z,10.74
2018-05-06T01:28:39.639Z,10.71
2018-05-06T01:29:39.590Z,10.63
2018-05-06T01:30:39.534Z,10.64
2018-05-06T01:31:39.495Z,10.72
2018-05-06T01:32:39.471Z,10.63
2018-05-06T01:33:39.388Z,10.59
2018-05-06T01:34:39.351Z,10.54
2018-05-06T01:35:39.294Z,10.56
2018-05-06T01:36:39.278Z,10.54
2018-05-06T01:37:39.195Z,10.54
2018-05-06T01:38:39.160Z,10.46
2018-05-06T01:39:39.132Z,10.54
2018-05-06T01:40:39.057Z,10.44
2018-05-06T01:41:39.001Z,10.33
2018-05-06T01:42:38.991Z,10.25
2018-05-06T01:43:38.905Z,10.20
2018-05-06T01:44:38.895Z,10.02
2018-05-06T01:45:38.814Z,10.04
2018-05-06T01:46:38.763Z,10.02
2018-05-06T01:47:38.714Z,9.97
2018-05-06T01:48:38.673Z,9.99
2018-05-06T01:49:38.658Z,9.95
2018-05-06T01:50:38.564Z,9.98
2018-05-06T01:51:38.520Z,10.04
2018-05-06T01:52:38.482Z,10.01
2018-05-06T01:53:38.426Z,10.07
2018-05-06T01:54:38.427Z,10.04
2018-05-06T01:55:38.329Z,10.01
2018-05-06T01:56:38.290Z,9.99
2018-05-06T01:57:38.228Z,10.04
2018-05-06T01:58:38.183Z,10.04
2018-05-06T01:59:38.170Z,10.01
2018-05-06T02:00:38.082Z,9.98
2018-05-06T02:01:38.033Z,9.87
2018-05-06T02:02:37.986Z,9.94
2018-05-06T02:03:37.940Z,9.87
2018-05-06T02:04:37.923Z,9.92
2018-05-06T02:05:37.841Z,9.89
2018-05-06T02:06:37.794Z,9.87
2018-05-06T02:07:37.739Z,9.92
2018-05-06T02:08:37.699Z,9.92
2018-05-06T02:09:37.693Z,9.83
2018-05-06T02:10:37.595Z,9.92
2018-05-06T02:11:37.545Z,9.82
2018-05-06T02:12:37.496Z,9.84
2018-05-06T02:13:37.453Z,9.74
2018-05-06T02:14:37.434Z,9.74
2018-05-06T02:15:37.348Z,9.74
2018-05-06T02:16:37.335Z,9.61
2018-05-06T02:17:37.252Z,9.72
2018-05-06T02:18:37.201Z,9.69
2018-05-06T02:19:37.160Z,9.61
2018-05-06T02:20:37.110Z,9.68
2018-05-06T02:21:37.092Z,9.69
2018-05-06T02:22:37.011Z,9.61
2018-05-06T02:23:36.964Z,9.61
2018-05-06T02:24:36.912Z,9.56
2018-05-06T02:25:36.861Z,9.59
2018-05-06T02:26:36.845Z,9.48
2018-05-06T02:27:36.813Z,9.48
2018-05-06T02:28:36.730Z,9.40
2018-05-06T02:29:36.665Z,9.43
2018-05-06T02:30:36.618Z,9.44
2018-05-06T02:31:36.567Z,9.34
2018-05-06T02:32:36.561Z,9.37
2018-05-06T02:33:36.469Z,9.43
2018-05-06T02:34:36.430Z,9.34
2018-05-06T02:35:36.371Z,9.39
2018-05-06T02:36:36.322Z,9.36
2018-05-06T02:37:36.325Z,9.23
2018-05-06T02:38:36.229Z,9.29
2018-05-06T02:39:36.179Z,9.31
2018-05-06T02:40:36.137Z,9.21
2018-05-06T02:41:36.078Z,9.18
2018-05-06T02:42:36.082Z,9.22
2018-05-06T02:43:35.976Z,9.25
2018-05-06T02:44:35.984Z,9.25
2018-05-06T02:45:35.890Z,9.16
2018-05-06T02:46:35.831Z,9.25
2018-05-06T02:47:35.780Z,9.23
2018-05-06T02:48:35.730Z,9.25
2018-05-06T02:49:35.721Z,9.37
2018-05-06T02:50:35.642Z,9.40
2018-05-06T02:51:35.589Z,9.26
2018-05-06T02:52:35.569Z,9.32
2018-05-06T02:53:35.514Z,9.28
2018-05-06T02:54:35.434Z,9.36
2018-05-06T02:55:35.390Z,9.31
2018-05-06T02:56:35.382Z,9.25
2018-05-06T02:57:35.289Z,9.28
2018-05-06T02:58:35.238Z,9.23
2018-05-06T02:59:35.223Z,9.31
2018-05-06T03:00:35.175Z,9.36
2018-05-06T03:01:35.094Z,9.84
2018-05-06T03:02:35.046Z,10.26
2018-05-06T03:03:35.011Z,10.33
2018-05-06T03:04:34.986Z,10.30
2018-05-06T03:05:34.893Z,10.31
2018-05-06T03:06:34.850Z,10.25
2018-05-06T03:07:34.800Z,10.17
2018-05-06T03:08:34.749Z,10.17
2018-05-06T03:09:34.731Z,10.01
2018-05-06T03:10:34.647Z,9.89
2018-05-06T03:11:34.600Z,9.92
2018-05-06T03:12:34.579Z,9.92
2018-05-06T03:13:34.502Z,9.82
2018-05-06T03:14:34.448Z,9.82
2018-05-06T03:15:34.442Z,9.86
2018-05-06T03:16:34.350Z,9.74
2018-05-06T03:17:34.305Z,9.84
2018-05-06T03:18:34.289Z,9.76
2018-05-06T03:19:34.201Z,9.76
2018-05-06T03:20:34.152Z,9.76
2018-05-06T03:21:34.104Z,9.50
2018-05-06T03:22:34.057Z,9.36
2018-05-06T03:23:34.038Z,9.40
2018-05-06T03:24:33.959Z,9.40
2018-05-06T03:25:33.906Z,9.39
2018-05-06T03:26:33.857Z,9.31
2018-05-06T03:27:33.840Z,9.32
2018-05-06T03:28:33.767Z,9.36
2018-05-06T03:29:33.710Z,9.46
2018-05-06T03:30:33.694Z,9.32
2018-05-06T03:31:33.610Z,9.37
2018-05-06T03:32:33.563Z,9.47
2018-05-06T03:33:33.512Z,9.48
2018-05-06T03:34:33.465Z,9.47
2018-05-06T03:35:33.449Z,9.34
2018-05-06T03:36:33.366Z,9.55
2018-05-06T03:37:33.362Z,9.39
2018-05-06T03:38:33.267Z,9.39
2018-05-06T03:39:33.219Z,9.29
2018-05-06T03:40:33.178Z,9.36
2018-05-06T03:41:33.115Z,9.32
2018-05-06T03:42:33.098Z,9.58
2018-05-06T03:43:33.024Z,9.73
2018-05-06T03:44:33.008Z,9.76
2018-05-06T03:45:32.922Z,9.91
2018-05-06T03:46:32.873Z,9.97
2018-05-06T03:47:32.835Z,10.17
2018-05-06T03:48:32.768Z,10.22
2018-05-06T03:49:32.751Z,10.22
2018-05-06T03:50:32.673Z,10.23
2018-05-06T03:51:32.621Z,10.28
2018-05-06T03:52:32.573Z,10.33
2018-05-06T03:53:32.575Z,10.41
2018-05-06T03:54:32.476Z,10.46
2018-05-06T03:55:32.422Z,10.51
2018-05-06T03:56:32.387Z,10.51
2018-05-06T03:57:32.330Z,10.56
2018-05-06T03:58:32.319Z,10.48
2018-05-06T03:59:32.230Z,10.48
2018-05-06T04:00:32.182Z,10.53
2018-05-06T04:01:32.128Z,10.53
2018-05-06T04:02:32.083Z,10.42
2018-05-06T04:03:32.065Z,10.40
2018-05-06T04:04:31.992Z,10.38
2018-05-06T04:05:31.964Z,10.38
2018-05-06T04:06:31.891Z,10.31
2018-05-06T04:07:31.842Z,10.25
2018-05-06T04:08:31.823Z,10.13
2018-05-06T04:09:31.733Z,9.99
2018-05-06T04:10:31.718Z,9.95
2018-05-06T04:11:31.669Z,9.87
2018-05-06T04:12:31.589Z,9.82
2018-05-06T04:13:31.540Z,9.74
2018-05-06T04:14:31.486Z,9.68
2018-05-06T04:15:31.479Z,9.66
2018-05-06T04:16:31.435Z,9.72
2018-05-06T04:17:31.344Z,9.72
2018-05-06T04:18:31.298Z,9.72
2018-05-06T04:19:31.245Z,9.76
2018-05-06T04:20:31.191Z,9.82
2018-05-06T04:21:31.187Z,9.92
2018-05-06T04:22:31.092Z,10.01
2018-05-06T04:23:31.065Z,9.99
2018-05-06T04:24:31.007Z,10.02
2018-05-06T04:25:30.943Z,10.02
2018-05-06T04:26:30.939Z,10.04
2018-05-06T04:27:30.891Z,9.98
2018-05-06T04:28:30.803Z,9.97
2018-05-06T04:29:30.756Z,9.99
2018-05-06T04:30:30.702Z,9.83
2018-05-06T04:31:30.652Z,9.87
2018-05-06T04:32:30.631Z,9.97
2018-05-06T04:33:30.584Z,9.94
2018-05-06T04:34:30.500Z,9.82
2018-05-06T04:35:30.464Z,9.87
2018-05-06T04:36:30.403Z,9.87
2018-05-06T04:37:30.395Z,9.95
2018-05-06T04:38:30.306Z,9.92
2018-05-06T04:39:30.267Z,9.94
2018-05-06T04:40:30.216Z,9.98
2018-05-06T04:41:30.155Z,9.95
2018-05-06T04:42:30.151Z,9.94
2018-05-06T04:43:30.055Z,9.89
2018-05-06T04:44:30.011Z,9.82
2018-05-06T04:45:29.958Z,9.66
2018-05-06T04:46:29.917Z,9.72
2018-05-06T04:47:29.893Z,9.68
2018-05-06T04:48:29.815Z,9.69
2018-05-06T04:49:29.764Z,9.73
2018-05-06T04:50:29.760Z,9.69
2018-05-06T04:51:29.672Z,9.74
2018-05-06T04:52:29.617Z,9.66
2018-05-06T04:53:29.564Z,9.68
2018-05-06T04:54:29.545Z,9.64
2018-05-06T04:55:29.468Z,9.74
2018-05-06T04:56:29.421Z,9.72
2018-05-06T04:57:29.404Z,9.69
2018-05-06T04:58:29.324Z,9.72
2018-05-06T04:59:29.268Z,9.65
2018-05-06T05:00:29.229Z,9.65
2018-05-06T05:01:29.169Z,9.72
2018-05-06T05:02:29.157Z,9.55
2018-05-06T05:03:29.074Z,9.55
2018-05-06T05:04:29.024Z,9.50
2018-05-06T05:05:28.973Z,9.58
2018-05-06T05:06:28.955Z,9.51
2018-05-06T05:07:28.877Z,9.58
2018-05-06T05:08:28.829Z,9.61
2018-05-06T05:09:28.786Z,9.64
2018-05-06T05:10:28.758Z,9.68
2018-05-06T05:11:28.679Z,9.74
2018-05-06T05:12:28.713Z,9.72
2018-05-06T05:13:28.592Z,9.69
2018-05-06T05:14:28.535Z,9.73
2018-05-06T05:15:28.508Z,9.82
2018-05-06T05:16:28.431Z,9.80
2018-05-06T05:17:28.381Z,9.87
2018-05-06T05:18:28.345Z,9.91
2018-05-06T05:19:28.324Z,9.86
2018-05-06T05:20:28.233Z,9.95
2018-05-06T05:21:28.186Z,9.95
2018-05-06T05:22:28.140Z,9.92
2018-05-06T05:23:28.084Z,9.95
2018-05-06T05:24:28.140Z,9.89
2018-05-06T05:25:27.988Z,10.01
2018-05-06T05:26:27.935Z,9.97
2018-05-06T05:27:27.888Z,10.09
2018-05-06T05:28:27.871Z,10.07
2018-05-06T05:29:27.788Z,10.05
2018-05-06T05:30:27.739Z,10.13
2018-05-06T05:31:27.691Z,10.12
2018-05-06T05:32:27.642Z,10.19
2018-05-06T05:33:27.630Z,10.19
2018-05-06T05:34:27.598Z,10.23
2018-05-06T05:35:27.496Z,10.13
2018-05-06T05:36:27.445Z,10.17
2018-05-06T05:37:27.395Z,10.17
2018-05-06T05:38:27.388Z,10.17
2018-05-06T05:39:27.299Z,10.17
2018-05-06T05:40:27.257Z,10.26
2018-05-06T05:41:27.200Z,10.26
2018-05-06T05:42:27.167Z,10.26
2018-05-06T05:43:27.131Z,10.23
2018-05-06T05:44:27.099Z,10.19
2018-05-06T05:45:27.043Z,10.17
2018-05-06T05:46:26.955Z,10.15
2018-05-06T05:47:26.912Z,10.23
2018-05-06T05:48:26.853Z,10.20
2018-05-06T05:49:26.812Z,10.23
2018-05-06T05:50:26.789Z,10.22
2018-05-06T05:51:26.746Z,10.19
2018-05-06T05:52:26.665Z,10.30
2018-05-06T05:53:26.613Z,10.25
2018-05-06T05:54:26.560Z,10.22
2018-05-06T05:55:26.511Z,10.23
2018-05-06T05:56:26.516Z,10.22
2018-05-06T05:57:26.413Z,10.22
2018-05-06T05:58:26.368Z,10.26
2018-05-06T05:59:26.325Z,10.26
2018-05-06T06:00:26.271Z,10.31
2018-05-06T06:01:26.298Z,10.41
2018-05-06T06:02:26.168Z,10.38
2018-05-06T06:03:26.123Z,10.46
2018-05-06T06:04:26.103Z,10.60
2018-05-06T06:05:26.025Z,10.57
2018-05-06T06:06:26.012Z,10.64
2018-05-06T06:07:25.925Z,10.59
2018-05-06T06:08:25.883Z,10.63
2018-05-06T06:09:25.841Z,10.71
2018-05-06T06:10:25.782Z,10.69
2018-05-06T06:11:25.762Z,10.67
2018-05-06T06:12:25.677Z,10.68
2018-05-06T06:13:25.663Z,10.79
2018-05-06T06:14:25.580Z,10.78
2018-05-06T06:15:25.563Z,10.79
2018-05-06T06:16:25.491Z,10.82
2018-05-06T06:17:25.439Z,10.89
2018-05-06T06:18:25.383Z,10.96
2018-05-06T06:19:25.374Z,11.02
2018-05-06T06:20:25.289Z,11.02
2018-05-06T06:21:25.240Z,11.04
2018-05-06T06:22:25.190Z,11.14
2018-05-06T06:23:25.180Z,11.04
2018-05-06T06:24:25.143Z,11.18
2018-05-06T06:25:25.050Z,11.22
2018-05-06T06:26:25.003Z,11.26
2018-05-06T06:27:24.964Z,11.26
2018-05-06T06:28:24.932Z,11.22
2018-05-06T06:29:24.853Z,11.32
2018-05-06T06:30:24.840Z,11.33
2018-05-06T06:31:24.753Z,11.33
2018-05-06T06:32:24.718Z,11.43
2018-05-06T06:33:24.655Z,11.43
2018-05-06T06:34:24.656Z,11.44
2018-05-06T06:35:24.559Z,11.47
2018-05-06T06:36:24.518Z,11.48
2018-05-06T06:37:24.464Z,11.57
2018-05-06T06:38:24.496Z,11.57
2018-05-06T06:39:24.407Z,11.59
2018-05-06T06:40:24.321Z,11.48
2018-05-06T06:41:24.268Z,11.60
2018-05-06T06:42:24.222Z,11.63
2018-05-06T06:43:24.178Z,11.51
2018-05-06T06:44:24.149Z,11.51
2018-05-06T06:45:24.072Z,11.60
2018-05-06T06:46:24.024Z,11.57
2018-05-06T06:47:23.982Z,11.62
2018-05-06T06:48:23.940Z,11.68
2018-05-06T06:49:23.932Z,11.69
2018-05-06T06:50:23.830Z,11.70
2018-05-06T06:51:23.781Z,11.73
2018-05-06T06:52:23.734Z,11.78
2018-05-06T06:53:23.685Z,11.83
2018-05-06T06:54:23.672Z,11.87
2018-05-06T06:55:23.591Z,11.90
2018-05-06T06:56:23.547Z,11.95
2018-05-06T06:57:23.532Z,12.00
2018-05-06T06:58:23.447Z,12.06
2018-05-06T06:59:23.394Z,12.09
2018-05-06T07:00:23.394Z,12.00
2018-05-06T07:01:23.300Z,12.15
2018-05-06T07:02:23.303Z,12.12
2018-05-06T07:03:23.207Z,12.21
2018-05-06T07:04:23.153Z,12.27
2018-05-06T07:05:23.113Z,12.20
2018-05-06T07:06:23.060Z,12.25
2018-05-06T07:07:23.067Z,12.28
2018-05-06T07:08:22.961Z,12.37
2018-05-06T07:09:22.920Z,12.42
2018-05-06T07:10:22.881Z,12.39
2018-05-06T07:11:22.863Z,12.45
2018-05-06T07:12:22.806Z,12.46
2018-05-06T07:13:22.723Z,12.58
2018-05-06T07:14:22.674Z,12.50
2018-05-06T07:15:22.631Z,12.62
2018-05-06T07:16:22.581Z,12.64
2018-05-06T07:17:22.563Z,12.64
2018-05-06T07:18:22.482Z,12.64
2018-05-06T07:19:22.545Z,12.72
2018-05-06T07:20:22.388Z,12.82
2018-05-06T07:21:22.340Z,12.79
2018-05-06T07:22:22.340Z,12.85
2018-05-06T07:23:22.244Z,12.93
2018-05-06T07:24:22.219Z,12.95
2018-05-06T07:25:22.153Z,12.98
2018-05-06T07:26:22.102Z,13.08
2018-05-06T07:27:22.087Z,13.13
2018-05-06T07:28:22.067Z,13.23
2018-05-06T07:29:21.994Z,13.20
2018-05-06T07:30:21.917Z,13.31
2018-05-06T07:31:21.880Z,13.30
2018-05-06T07:32:21.819Z,13.28
2018-05-06T07:33:21.796Z,13.39
2018-05-06T07:34:21.751Z,13.52
2018-05-06T07:35:21.672Z,13.46
2018-05-06T07:36:21.637Z,13.56
2018-05-06T07:37:21.607Z,13.59
2018-05-06T07:38:21.532Z,13.62
2018-05-06T07:39:21.535Z,13.70
2018-05-06T07:40:21.439Z,13.74
2018-05-06T07:41:21.390Z,13.85
2018-05-06T07:42:21.339Z,13.95
2018-05-06T07:43:21.305Z,13.90
2018-05-06T07:44:21.292Z,14.10
2018-05-06T07:45:21.201Z,14.20
2018-05-06T07:46:21.156Z,14.20
2018-05-06T07:47:21.108Z,14.37
2018-05-06T07:48:21.061Z,14.43
2018-05-06T07:49:21.046Z,14.48
2018-05-06T07:50:20.964Z,14.48
2018-05-06T07:51:20.926Z,14.55
2018-05-06T07:52:20.975Z,14.66
2018-05-06T07:53:20.829Z,14.62
2018-05-06T07:54:20.776Z,14.82
2018-05-06T07:55:20.765Z,14.77
2018-05-06T07:56:20.689Z,14.89
2018-05-06T07:57:20.645Z,14.92
2018-05-06T07:58:20.591Z,15.00
2018-05-06T07:59:20.541Z,15.25
2018-05-06T08:00:20.559Z,15.39
2018-05-06T08:01:20.449Z,15.68
2018-05-06T08:02:20.402Z,15.79
2018-05-06T08:03:20.354Z,16.05
2018-05-06T08:04:20.340Z,16.29
2018-05-06T08:05:20.298Z,16.46
2018-05-06T08:06:20.250Z,16.87
2018-05-06T08:07:20.173Z,17.09
2018-05-06T08:08:20.124Z,17.30
2018-05-06T08:09:20.083Z,17.44
2018-05-06T08:10:20.029Z,17.44
2018-05-06T08:11:20.016Z,17.33
2018-05-06T08:12:19.981Z,17.46
2018-05-06T08:13:19.900Z,17.49
2018-05-06T08:14:19.851Z,17.56
2018-05-06T08:15:19.803Z,17.71
2018-05-06T08:16:19.834Z,17.92
2018-05-06T08:17:19.748Z,18.20
2018-05-06T08:18:19.673Z,18.60
2018-05-06T08:19:19.620Z,18.70
2018-05-06T08:20:19.578Z,18.74
2018-05-06T08:21:19.565Z,19.11
2018-05-06T08:22:19.524Z,19.37
2018-05-06T08:23:19.437Z,19.45
2018-05-06T08:24:19.421Z,19.22
2018-05-06T08:25:19.362Z,19.40
2018-05-06T08:26:19.308Z,19.79
2018-05-06T08:27:19.294Z,20.13
2018-05-06T08:28:19.219Z,20.47
2018-05-06T08:29:19.168Z,20.74
2018-05-06T08:30:19.128Z,21.07
2018-05-06T08:31:19.114Z,21.39
2018-05-06T08:32:19.037Z,21.54
2018-05-06T08:33:19.019Z,21.57
2018-05-06T08:34:18.974Z,21.82
2018-05-06T08:35:18.901Z,22.04
2018-05-06T08:36:18.859Z,22.14
2018-05-06T08:37:18.813Z,22.39
2018-05-06T08:38:18.769Z,22.98
2018-05-06T08:39:18.772Z,23.43
2018-05-06T08:40:18.684Z,23.76
2018-05-06T08:41:18.637Z,23.87
2018-05-06T08:42:18.594Z,24.01
2018-05-06T08:43:18.552Z,24.39
2018-05-06T08:44:18.548Z,25.08
2018-05-06T08:45:18.577Z,25.75
2018-05-06T08:46:18.425Z,26.21
2018-05-06T08:47:18.386Z,26.58
2018-05-06T08:48:18.417Z,26.80
2018-05-06T08:49:18.301Z,26.88
2018-05-06T08:50:18.305Z,26.89
2018-05-06T08:51:18.225Z,26.78
2018-05-06T08:52:18.201Z,26.66
2018-05-06T08:53:18.146Z,26.21
2018-05-06T08:54:18.139Z,24.99
2018-05-06T08:55:18.078Z,24.16
2018-05-06T08:56:18.039Z,24.02
2018-05-06T08:57:18.046Z,23.50
2018-05-06T08:58:17.965Z,23.21
2018-05-06T08:59:17.917Z,23.18
2018-05-06T09:00:17.877Z,22.78
2018-05-06T09:01:17.840Z,22.25
2018-05-06T09:02:17.848Z,21.83
2018-05-06T09:03:17.759Z,21.32
2018-05-06T09:04:17.719Z,20.85
2018-05-06T09:05:17.677Z,20.69
2018-05-06T09:06:17.678Z,20.82
2018-05-06T09:07:17.601Z,21.17
2018-05-06T09:08:17.559Z,21.67
2018-05-06T09:09:17.522Z,22.32
2018-05-06T09:10:17.484Z,22.78
2018-05-06T09:11:17.495Z,23.09
2018-05-06T09:12:17.403Z,23.39
2018-05-06T09:13:17.393Z,23.48
2018-05-06T09:14:17.328Z,23.91
2018-05-06T09:15:17.319Z,24.35
2018-05-06T09:16:17.247Z,24.73
2018-05-06T09:17:17.207Z,24.95
2018-05-06T09:18:17.194Z,24.95
2018-05-06T09:19:17.123Z,25.07
2018-05-06T09:20:17.100Z,25.26
2018-05-06T09:21:17.046Z,25.65
2018-05-06T09:22:17.007Z,25.83
2018-05-06T09:23:17.032Z,26.07
2018-05-06T09:24:16.937Z,26.29
2018-05-06T09:25:16.968Z,26.63
2018-05-06T09:26:16.851Z,26.71
2018-05-06T09:27:16.814Z,26.71
2018-05-06T09:28:16.807Z,26.90
2018-05-06T09:29:16.795Z,27.02
2018-05-06T09:30:16.689Z,27.17
2018-05-06T09:31:16.656Z,27.30
2018-05-06T09:32:16.631Z,27.29
2018-05-06T09:33:16.572Z,27.29
2018-05-06T09:34:16.572Z,27.42
2018-05-06T09:35:16.498Z,27.42
2018-05-06T09:36:16.455Z,27.42
2018-05-06T09:37:16.418Z,27.51
2018-05-06T09:38:16.384Z,27.74
2018-05-06T09:39:16.363Z,27.70
2018-05-06T09:40:16.309Z,27.78
2018-05-06T09:41:16.262Z,27.71
2018-05-06T09:42:16.259Z,27.67
2018-05-06T09:43:16.192Z,27.63
2018-05-06T09:44:16.183Z,27.21
2018-05-06T09:45:16.110Z,27.33
2018-05-06T09:46:16.116Z,27.58
2018-05-06T09:47:16.039Z,27.86
2018-05-06T09:48:16.005Z,28.02
2018-05-06T09:49:15.957Z,28.27
2018-05-06T09:50:15.980Z,28.29
2018-05-06T09:51:15.936Z,28.38
2018-05-06T09:52:15.891Z,28.35
2018-05-06T09:53:15.811Z,28.35
2018-05-06T09:54:15.775Z,28.45
2018-05-06T09:55:15.733Z,28.54
2018-05-06T09:56:15.731Z,28.57
2018-05-06T09:57:15.655Z,28.70
2018-05-06T09:58:15.624Z,28.69
2018-05-06T09:59:15.591Z,28.69
2018-05-06T10:00:15.593Z,28.64
2018-05-06T10:01:15.555Z,28.54
2018-05-06T10:02:15.472Z,28.56
2018-05-06T10:03:15.436Z,28.48
2018-05-06T10:04:15.404Z,28.35
2018-05-06T10:05:15.393Z,28.23
2018-05-06T10:06:15.325Z,28.20
2018-05-06T10:07:15.286Z,28.12
2018-05-06T10:08:15.301Z,28.25
2018-05-06T10:09:15.219Z,28.30
2018-05-06T10:10:15.174Z,28.48
2018-05-06T10:11:15.140Z,28.74
2018-05-06T10:12:15.106Z,28.67
2018-05-06T10:13:15.097Z,28.76
2018-05-06T10:14:15.027Z,28.75
2018-05-06T10:15:14.995Z,28.74
2018-05-06T10:16:14.954Z,28.66
2018-05-06T10:17:14.952Z,28.59
2018-05-06T10:18:14.887Z,28.67
2018-05-06T10:19:14.843Z,28.75
2018-05-06T10:20:14.810Z,28.60
2018-05-06T10:21:14.805Z,28.72
2018-05-06T10:22:14.753Z,28.76
2018-05-06T10:23:14.737Z,28.38
2018-05-06T10:24:14.662Z,26.97
2018-05-06T10:25:14.628Z,25.96
2018-05-06T10:26:14.592Z,25.88
2018-05-06T10:27:14.588Z,26.05
2018-05-06T10:28:14.516Z,26.23
2018-05-06T10:29:14.476Z,26.36
2018-05-06T10:30:14.494Z,26.19
2018-05-06T10:31:14.412Z,25.26
2018-05-06T10:32:14.369Z,25.47
2018-05-06T10:33:14.330Z,25.51
2018-05-06T10:34:14.302Z,25.68
2018-05-06T10:35:14.306Z,26.05
2018-05-06T10:36:14.225Z,26.55
2018-05-06T10:37:14.191Z,26.95
2018-05-06T10:38:14.147Z,27.29
2018-05-06T10:39:14.129Z,27.51
2018-05-06T10:40:14.110Z,27.32
2018-05-06T10:41:14.040Z,27.42
2018-05-06T10:42:13.999Z,27.78
2018-05-06T10:43:14.059Z,28.12
2018-05-06T10:44:14.051Z,28.35
2018-05-06T10:45:13.922Z,27.96
2018-05-06T10:46:13.858Z,27.59
2018-05-06T10:47:13.822Z,27.83
2018-05-06T10:48:13.781Z,27.86
2018-05-06T10:49:13.805Z,27.93
2018-05-06T10:50:13.710Z,28.23
2018-05-06T10:51:13.713Z,28.33
2018-05-06T10:52:13.658Z,28.72
2018-05-06T10:53:13.612Z,28.84
2018-05-06T10:54:13.607Z,29.02
2018-05-06T10:55:13.528Z,28.98
2018-05-06T10:56:13.493Z,29.14
2018-05-06T10:57:13.457Z,29.20
2018-05-06T10:58:13.416Z,29.39
2018-05-06T10:59:13.416Z,29.57
2018-05-06T11:00:13.348Z,29.73
2018-05-06T11:01:13.323Z,29.71
2018-05-06T11:02:13.303Z,29.66
2018-05-06T11:03:13.234Z,29.72
2018-05-06T11:04:13.200Z,29.76
2018-05-06T11:05:13.172Z,29.86
2018-05-06T11:06:13.181Z,29.87
2018-05-06T11:07:13.093Z,29.87
2018-05-06T11:08:13.070Z,29.90
2018-05-06T11:09:13.024Z,29.98
2018-05-06T11:10:13.017Z,30.13
2018-05-06T11:11:12.983Z,29.41
2018-05-06T11:12:12.913Z,28.45
2018-05-06T11:13:12.883Z,28.29
2018-05-06T11:14:12.842Z,28.49
2018-05-06T11:15:12.817Z,28.54
2018-05-06T11:16:12.809Z,28.78
2018-05-06T11:17:12.734Z,28.91
2018-05-06T11:18:12.703Z,29.17
2018-05-06T11:19:12.673Z,29.27
2018-05-06T11:20:12.638Z,29.49
2018-05-06T11:21:12.634Z,29.61
2018-05-06T11:22:12.600Z,29.79
2018-05-06T11:23:12.530Z,29.94
2018-05-06T11:24:12.486Z,30.18
2018-05-06T11:25:12.457Z,30.32
2018-05-06T11:26:12.482Z,30.43
2018-05-06T11:27:12.421Z,30.31
2018-05-06T11:28:12.357Z,30.28
2018-05-06T11:29:12.340Z,30.13
2018-05-06T11:30:12.280Z,30.19
2018-05-06T11:31:12.245Z,30.10
2018-05-06T11:32:12.207Z,30.10
2018-05-06T11:33:12.170Z,30.13
2018-05-06T11:34:12.192Z,30.09
2018-05-06T11:35:12.117Z,30.23
2018-05-06T11:36:12.072Z,30.19
2018-05-06T11:37:12.030Z,30.28
2018-05-06T11:38:12.007Z,30.40
2018-05-06T11:39:12.001Z,30.37
2018-05-06T11:40:11.967Z,30.46
2018-05-06T11:41:11.940Z,30.37
2018-05-06T11:42:11.857Z,30.27
2018-05-06T11:43:11.861Z,30.15
2018-05-06T11:44:11.841Z,30.18
2018-05-06T11:45:11.799Z,30.25
2018-05-06T11:46:11.751Z,30.32
2018-05-06T11:47:11.684Z,30.30
2018-05-06T11:48:11.690Z,30.25
2018-05-06T11:49:11.610Z,30.24
2018-05-06T11:50:11.590Z,30.18
2018-05-06T11:51:11.577Z,29.91
2018-05-06T11:52:11.529Z,29.79
2018-05-06T11:53:11.474Z,29.90
2018-05-06T11:54:11.443Z,29.81
2018-05-06T11:55:11.420Z,29.56
2018-05-06T11:56:11.400Z,28.89
2018-05-06T11:57:11.347Z,28.05
2018-05-06T11:58:11.296Z,28.05
2018-05-06T11:59:11.304Z,28.20
2018-05-06T12:00:11.235Z,28.42
2018-05-06T12:01:11.193Z,28.39
2018-05-06T12:02:11.167Z,28.49
2018-05-06T12:03:11.156Z,28.67
2018-05-06T12:04:11.089Z,28.82
2018-05-06T12:05:11.055Z,29.01
2018-05-06T12:06:11.019Z,29.32
2018-05-06T12:07:10.982Z,29.53
2018-05-06T12:08:10.990Z,29.75
2018-05-06T12:09:10.912Z,29.88
2018-05-06T12:10:10.878Z,29.95
2018-05-06T12:11:10.845Z,30.25
2018-05-06T12:12:10.820Z,30.27
2018-05-06T12:13:10.805Z,30.39
2018-05-06T12:14:10.767Z,30.47
2018-05-06T12:15:10.740Z,30.47
2018-05-06T12:16:10.684Z,30.47
2018-05-06T12:17:10.634Z,28.81
2018-05-06T12:18:10.646Z,28.41
2018-05-06T12:19:10.566Z,28.63
2018-05-06T12:20:10.566Z,28.82
2018-05-06T12:21:10.500Z,28.12
2018-05-06T12:22:10.533Z,27.49
2018-05-06T12:23:10.425Z,27.58
2018-05-06T12:24:10.399Z,27.30
2018-05-06T12:25:10.404Z,26.85
2018-05-06T12:26:10.321Z,26.29
2018-05-06T12:27:10.286Z,26.65
2018-05-06T12:28:10.254Z,26.97
2018-05-06T12:29:10.290Z,27.54
2018-05-06T12:30:10.189Z,27.39
2018-05-06T12:31:10.156Z,27.07
2018-05-06T12:32:10.112Z,26.80
2018-05-06T12:33:10.074Z,26.53
2018-05-06T12:34:10.073Z,25.77
2018-05-06T12:35:10.014Z,25.54
2018-05-06T12:36:09.978Z,25.53
2018-05-06T12:37:09.933Z,25.75
2018-05-06T12:38:09.932Z,25.90
2018-05-06T12:39:09.864Z,25.59
2018-05-06T12:40:09.823Z,25.38
2018-05-06T12:41:09.788Z,25.51
2018-05-06T12:42:09.752Z,25.36
2018-05-06T12:43:09.841Z,25.50
2018-05-06T12:44:09.697Z,25.81
2018-05-06T12:45:09.643Z,26.21
2018-05-06T12:46:09.615Z,25.75
2018-05-06T12:47:09.583Z,25.25
2018-05-06T12:48:09.574Z,24.69
2018-05-06T12:49:09.506Z,24.30
2018-05-06T12:50:09.464Z,24.13
2018-05-06T12:51:09.456Z,24.38
2018-05-06T12:52:09.397Z,24.58
2018-05-06T12:53:09.390Z,24.95
2018-05-06T12:54:09.318Z,25.13
2018-05-06T12:55:09.288Z,25.54
2018-05-06T12:56:09.258Z,26.07
2018-05-06T12:57:09.209Z,26.44
2018-05-06T12:58:09.280Z,26.93